createdAt,value
2022-11-10T00:00:28.137Z,11.34
2022-11-10T00:01:49.034Z,11.36
2022-11-10T00:03:10.814Z,11.29
2022-11-10T00:04:31.448Z,11.37
2022-11-10T00:05:52.136Z,11.44
2022-11-10T00:07:13.149Z,11.30
2022-11-10T00:08:34.146Z,11.32
2022-11-10T00:09:55.474Z,11.34
2022-11-10T00:11:16.228Z,11.31
2022-11-10T00:12:36.956Z,11.37
2022-11-10T00:14:16.518Z,11.22
2022-11-10T00:15:57.395Z,11.29
2022-11-10T00:17:19.490Z,11.33
2022-11-10T00:18:40.371Z,11.28
2022-11-10T00:20:00.979Z,11.30
2022-11-10T00:21:22.024Z,11.31
2022-11-10T00:22:43.081Z,11.28
2022-11-10T00:24:04.635Z,11.31
2022-11-10T00:25:26.238Z,11.30
2022-11-10T00:26:46.990Z,11.39
2022-11-10T00:28:07.728Z,11.42
2022-11-10T00:29:28.351Z,11.41
2022-11-10T00:30:49.119Z,11.27
2022-11-10T00:32:10.793Z,11.27
2022-11-10T00:33:33.673Z,11.38
2022-11-10T00:34:54.250Z,11.41
2022-11-10T00:36:15.160Z,11.33
2022-11-10T00:37:35.825Z,11.24
2022-11-10T00:38:56.660Z,11.24
2022-11-10T00:40:17.303Z,11.17
2022-11-10T00:41:37.793Z,11.23
2022-11-10T00:42:58.334Z,11.35
2022-11-10T00:44:19.201Z,11.41
2022-11-10T00:45:42.975Z,11.34
2022-11-10T00:47:03.562Z,11.50
2022-11-10T00:48:24.759Z,11.49
2022-11-10T00:49:45.326Z,11.46
2022-11-10T00:51:06.576Z,11.56
2022-11-10T00:52:27.309Z,11.52
2022-11-10T00:53:48.729Z,11.55
2022-11-10T00:55:09.491Z,11.45
2022-11-10T00:56:30.094Z,11.31
2022-11-10T00:57:51.439Z,11.22
2022-11-10T00:59:12.203Z,11.29
2022-11-10T01:00:33.816Z,11.30
2022-11-10T01:01:54.757Z,11.49
2022-11-10T01:03:16.872Z,11.56
2022-11-10T01:04:37.904Z,11.51
2022-11-10T01:05:58.932Z,11.34
2022-11-10T01:07:19.905Z,11.46
2022-11-10T01:08:41.723Z,11.46
2022-11-10T01:10:02.499Z,11.60
2022-11-10T01:11:27.150Z,11.47
2022-11-10T01:12:48.052Z,11.46
2022-11-10T01:14:09.028Z,11.50
2022-11-10T01:15:29.574Z,11.56
2022-11-10T01:16:50.444Z,11.36
2022-11-10T01:18:11.196Z,11.22
2022-11-10T01:19:32.264Z,11.30
2022-11-10T01:20:53.054Z,11.35
2022-11-10T01:22:13.682Z,11.23
2022-11-10T01:23:35.380Z,11.22
2022-11-10T01:24:55.774Z,11.18
2022-11-10T01:26:16.794Z,11.18
2022-11-10T01:27:37.672Z,11.20
2022-11-10T01:28:58.822Z,11.21
2022-11-10T01:30:22.574Z,11.13
2022-11-10T01:31:43.203Z,11.21
2022-11-10T01:33:04.134Z,11.16
2022-11-10T01:34:25.193Z,11.07
2022-11-10T01:35:46.032Z,11.05
2022-11-10T01:37:06.652Z,11.03
2022-11-10T01:38:32.699Z,11.03
2022-11-10T01:39:53.696Z,11.01
2022-11-10T01:41:15.129Z,10.83
2022-11-10T01:42:49.940Z,10.78
2022-11-10T01:44:22.335Z,10.69
2022-11-10T01:45:53.410Z,10.64
2022-11-10T01:47:14.129Z,10.65
2022-11-10T01:48:55.532Z,10.68
2022-11-10T01:50:17.350Z,10.67
2022-11-10T01:51:45.482Z,10.66
2022-11-10T01:53:12.151Z,10.63
2022-11-10T01:54:36.374Z,10.60
2022-11-10T01:55:57.280Z,10.55
2022-11-10T01:57:17.990Z,10.66
2022-11-10T01:58:44.540Z,10.76
2022-11-10T02:00:06.007Z,10.76
2022-11-10T02:01:27.218Z,10.71
2022-11-10T02:02:57.136Z,10.66
2022-11-10T02:04:19.463Z,10.69
2022-11-10T02:05:40.644Z,10.67
2022-11-10T02:07:01.789Z,10.62
2022-11-10T02:08:23.955Z,10.56
2022-11-10T02:09:44.691Z,10.58
2022-11-10T02:11:05.586Z,10.63
2022-11-10T02:12:38.514Z,10.63
2022-11-10T02:14:00.851Z,10.69
2022-11-10T02:15:22.656Z,10.69
2022-11-10T02:16:43.587Z,10.67
2022-11-10T02:18:04.339Z,10.68
2022-11-10T02:19:26.670Z,10.52
2022-11-10T02:20:47.929Z,10.33
2022-11-10T02:22:08.915Z,10.28
2022-11-10T02:23:29.529Z,10.26
2022-11-10T02:24:50.402Z,10.19
2022-11-10T02:26:12.513Z,10.17
2022-11-10T02:27:33.858Z,10.39
2022-11-10T02:28:54.821Z,10.38
2022-11-10T02:30:15.863Z,10.40
2022-11-10T02:31:36.658Z,10.33
2022-11-10T02:32:57.336Z,10.28
2022-11-10T02:34:18.093Z,10.20
2022-11-10T02:35:38.809Z,10.22
2022-11-10T02:36:59.444Z,10.24
2022-11-10T02:38:20.319Z,10.27
2022-11-10T02:39:41.197Z,10.32
2022-11-10T02:41:02.474Z,10.30
2022-11-10T02:42:23.347Z,10.33
2022-11-10T02:43:44.131Z,10.31
2022-11-10T02:45:05.203Z,10.30
2022-11-10T02:46:25.946Z,10.27
2022-11-10T02:47:46.784Z,10.27
2022-11-10T02:49:08.089Z,10.28
2022-11-10T02:50:29.029Z,10.25
2022-11-10T02:51:49.972Z,10.26
2022-11-10T02:53:10.696Z,10.25
2022-11-10T02:54:31.776Z,9.97
2022-11-10T02:55:52.545Z,9.94
2022-11-10T02:57:13.572Z,9.95
2022-11-10T02:58:34.260Z,10.00
2022-11-10T02:59:54.822Z,9.93
2022-11-10T03:01:15.701Z,9.86
2022-11-10T03:02:36.337Z,9.87
2022-11-10T03:03:57.000Z,9.76
2022-11-10T03:05:17.792Z,9.82
2022-11-10T03:06:38.496Z,9.80
2022-11-10T03:08:01.214Z,9.75
2022-11-10T03:09:22.121Z,9.81
2022-11-10T03:10:42.833Z,9.75
2022-11-10T03:12:03.691Z,9.71
2022-11-10T03:13:32.217Z,9.78
2022-11-10T03:15:06.066Z,9.81
2022-11-10T03:16:26.999Z,9.79
2022-11-10T03:17:47.675Z,9.80
2022-11-10T03:19:08.733Z,9.78
2022-11-10T03:20:29.578Z,9.85
2022-11-10T03:21:50.585Z,9.86
2022-11-10T03:23:11.482Z,9.83
2022-11-10T03:24:32.074Z,9.79
2022-11-10T03:25:52.930Z,9.84
2022-11-10T03:27:13.625Z,9.88
2022-11-10T03:28:35.049Z,9.83
2022-11-10T03:29:55.531Z,9.70
2022-11-10T03:31:16.573Z,9.57
2022-11-10T03:32:37.417Z,9.48
2022-11-10T03:33:58.426Z,9.59
2022-11-10T03:35:19.253Z,9.49
2022-11-10T03:36:39.959Z,9.44
2022-11-10T03:38:00.708Z,9.38
2022-11-10T03:39:21.388Z,9.58
2022-11-10T03:41:12.601Z,9.50
2022-11-10T03:42:22.939Z,9.49
2022-11-10T03:43:43.437Z,9.36
2022-11-10T03:45:04.959Z,9.34
2022-11-10T03:46:25.630Z,9.35
2022-11-10T03:47:47.969Z,9.41
2022-11-10T03:49:08.581Z,9.30
2022-11-10T03:50:29.160Z,9.09
2022-11-10T03:51:49.677Z,9.12
2022-11-10T03:53:10.311Z,9.20
2022-11-10T03:54:31.311Z,9.24
2022-11-10T03:55:52.089Z,9.25
2022-11-10T03:57:12.922Z,9.20
2022-11-10T03:58:33.491Z,9.18
2022-11-10T03:59:54.089Z,9.19
2022-11-10T04:01:15.196Z,9.17
2022-11-10T04:02:36.912Z,9.04
2022-11-10T04:03:57.547Z,8.96
2022-11-10T04:05:36.623Z,8.97
2022-11-10T04:07:16.183Z,8.95
2022-11-10T04:08:55.639Z,8.76
2022-11-10T04:10:16.471Z,8.80
2022-11-10T04:11:56.170Z,8.86
2022-11-10T04:13:36.083Z,8.81
2022-11-10T04:15:15.278Z,8.77
2022-11-10T04:16:36.182Z,8.78
2022-11-10T04:18:20.220Z,8.77
2022-11-10T04:19:41.261Z,8.70
2022-11-10T04:21:03.312Z,8.54
2022-11-10T04:22:42.717Z,8.48
2022-11-10T04:24:03.677Z,8.48
2022-11-10T04:25:24.351Z,8.53
2022-11-10T04:26:45.360Z,8.52
2022-11-10T04:28:06.348Z,8.51
2022-11-10T04:29:27.248Z,8.52
2022-11-10T04:30:47.968Z,8.50
2022-11-10T04:32:08.674Z,8.55
2022-11-10T04:33:29.442Z,8.55
2022-11-10T04:34:50.410Z,8.60
2022-11-10T04:36:14.210Z,8.53
2022-11-10T04:37:35.086Z,8.40
2022-11-10T04:38:56.303Z,8.38
2022-11-10T04:40:17.041Z,8.37
2022-11-10T04:41:37.744Z,8.26
2022-11-10T04:42:58.407Z,8.01
2022-11-10T04:44:19.171Z,7.90
2022-11-10T04:45:39.738Z,7.88
2022-11-10T04:47:00.663Z,7.85
2022-11-10T04:48:21.701Z,7.83
2022-11-10T04:49:42.618Z,7.87
2022-11-10T04:51:07.362Z,7.91
2022-11-10T04:52:27.926Z,7.89
2022-11-10T04:53:48.993Z,7.92
2022-11-10T04:55:09.771Z,7.92
2022-11-10T04:56:30.954Z,7.94
2022-11-10T04:57:51.502Z,7.86
2022-11-10T04:59:12.472Z,7.87
2022-11-10T05:00:34.287Z,7.83
2022-11-10T05:01:55.641Z,7.80
2022-11-10T05:03:16.282Z,7.86
2022-11-10T05:04:36.859Z,7.85
2022-11-10T05:05:57.374Z,7.90
2022-11-10T05:07:18.148Z,7.84
2022-11-10T05:08:40.650Z,7.83
2022-11-10T05:10:01.618Z,7.84
2022-11-10T05:11:22.431Z,7.80
2022-11-10T05:12:43.107Z,7.77
2022-11-10T05:14:03.839Z,7.81
2022-11-10T05:15:25.104Z,7.64
2022-11-10T05:16:46.324Z,7.70
2022-11-10T05:18:06.911Z,7.60
2022-11-10T05:19:27.509Z,7.50
2022-11-10T05:20:49.140Z,7.42
2022-11-10T05:22:10.190Z,7.45
2022-11-10T05:23:39.680Z,7.45
2022-11-10T05:25:00.862Z,7.54
2022-11-10T05:26:21.594Z,7.61
2022-11-10T05:27:42.286Z,7.71
2022-11-10T05:29:03.024Z,7.84
2022-11-10T05:30:23.856Z,7.73
2022-11-10T05:31:49.108Z,7.84
2022-11-10T05:33:12.273Z,7.86
2022-11-10T05:34:33.152Z,7.85
2022-11-10T05:35:54.069Z,7.92
2022-11-10T05:37:14.699Z,7.87
2022-11-10T05:38:40.262Z,7.93
2022-11-10T05:40:02.979Z,7.97
2022-11-10T05:41:23.543Z,7.97
2022-11-10T05:42:45.837Z,7.96
2022-11-10T05:44:06.566Z,8.01
2022-11-10T05:45:29.287Z,7.99
2022-11-10T05:46:49.854Z,8.02
2022-11-10T05:48:10.757Z,8.08
2022-11-10T05:49:31.506Z,8.08
2022-11-10T05:50:52.308Z,7.91
2022-11-10T05:52:13.027Z,7.90
2022-11-10T05:53:33.723Z,7.68
2022-11-10T05:54:55.455Z,7.68
2022-11-10T05:56:16.398Z,7.63
2022-11-10T05:57:37.305Z,7.53
2022-11-10T05:58:58.052Z,7.55
2022-11-10T06:00:23.019Z,7.57
2022-11-10T06:01:43.752Z,7.55
2022-11-10T06:03:14.143Z,7.54
2022-11-10T06:04:34.917Z,7.65
2022-11-10T06:05:55.620Z,7.66
2022-11-10T06:07:16.268Z,7.68
2022-11-10T06:08:36.772Z,7.73
2022-11-10T06:09:57.379Z,7.74
2022-11-10T06:11:18.667Z,7.68
2022-11-10T06:12:39.528Z,7.78
2022-11-10T06:14:00.822Z,7.81
2022-11-10T06:15:22.220Z,7.86
2022-11-10T06:16:42.904Z,7.98
2022-11-10T06:18:03.809Z,7.99
2022-11-10T06:19:24.411Z,8.02
2022-11-10T06:20:47.307Z,8.02
2022-11-10T06:22:08.161Z,8.11
2022-11-10T06:23:30.063Z,8.14
2022-11-10T06:24:50.856Z,8.16
2022-11-10T06:26:11.472Z,8.16
2022-11-10T06:27:32.098Z,8.19
2022-11-10T06:28:53.019Z,8.27
2022-11-10T06:30:14.066Z,8.32
2022-11-10T06:31:34.872Z,8.29
2022-11-10T06:32:55.809Z,8.35
2022-11-10T06:34:16.624Z,8.43
2022-11-10T06:35:37.343Z,8.43
2022-11-10T06:36:58.268Z,8.46
2022-11-10T06:38:19.093Z,8.46
2022-11-10T06:39:39.996Z,8.58
2022-11-10T06:41:00.632Z,8.63
2022-11-10T06:42:21.307Z,8.65
2022-11-10T06:43:41.889Z,8.73
2022-11-10T06:45:03.329Z,8.68
2022-11-10T06:46:24.000Z,8.34
2022-11-10T06:47:44.443Z,8.02
2022-11-10T06:49:05.145Z,8.00
2022-11-10T06:50:25.679Z,8.17
2022-11-10T06:51:46.328Z,8.32
2022-11-10T06:53:07.568Z,8.42
2022-11-10T06:54:28.217Z,8.34
2022-11-10T06:55:48.969Z,8.45
2022-11-10T06:57:09.693Z,8.46
2022-11-10T06:58:30.239Z,8.54
2022-11-10T06:59:51.492Z,8.61
2022-11-10T07:01:12.146Z,8.79
2022-11-10T07:02:32.658Z,8.87
2022-11-10T07:04:18.117Z,8.91
2022-11-10T07:05:35.982Z,8.93
2022-11-10T07:06:58.140Z,9.10
2022-11-10T07:08:18.969Z,9.18
2022-11-10T07:09:39.590Z,9.25
2022-11-10T07:11:00.165Z,9.32
2022-11-10T07:12:20.828Z,9.54
2022-11-10T07:13:42.460Z,9.71
2022-11-10T07:15:03.684Z,9.68
2022-11-10T07:16:24.760Z,9.57
2022-11-10T07:17:45.442Z,9.57
2022-11-10T07:19:06.587Z,9.67
2022-11-10T07:20:28.365Z,9.75
2022-11-10T07:21:49.508Z,9.66
2022-11-10T07:23:10.837Z,9.69
2022-11-10T07:24:32.656Z,9.63
2022-11-10T07:25:53.749Z,9.62
2022-11-10T07:27:14.306Z,9.48
2022-11-10T07:28:35.200Z,9.47
2022-11-10T07:29:55.923Z,9.57
2022-11-10T07:31:16.452Z,9.56
2022-11-10T07:32:37.145Z,9.64
2022-11-10T07:33:57.754Z,9.80
2022-11-10T07:35:18.859Z,9.88
2022-11-10T07:43:06.612Z,9.78
2022-11-10T07:44:27.677Z,10.11
2022-11-10T07:45:53.043Z,10.67
2022-11-10T07:47:13.599Z,11.00
2022-11-10T07:48:34.614Z,11.31
2022-11-10T07:49:55.761Z,11.01
2022-11-10T07:51:16.412Z,10.90
2022-11-10T07:52:37.179Z,10.89
2022-11-10T07:53:57.747Z,11.14
2022-11-10T07:55:18.472Z,11.47
2022-11-10T07:56:39.283Z,11.85
2022-11-10T07:58:00.240Z,12.05
2022-11-10T07:59:20.778Z,12.10
2022-11-10T08:00:42.130Z,12.19
2022-11-10T08:02:03.079Z,12.00
2022-11-10T08:03:24.186Z,12.17
2022-11-10T08:04:45.132Z,12.23
2022-11-10T08:06:06.085Z,12.40
2022-11-10T08:07:26.816Z,12.16
2022-11-10T08:08:47.801Z,12.61
2022-11-10T08:10:09.521Z,12.66
2022-11-10T08:11:30.304Z,12.88
2022-11-10T08:12:56.598Z,13.12
2022-11-10T08:14:17.399Z,12.75
2022-11-10T08:15:39.405Z,12.83
2022-11-10T08:17:00.236Z,13.04
2022-11-10T08:18:23.140Z,13.13
2022-11-10T08:19:43.865Z,12.88
2022-11-10T08:21:05.582Z,13.18
2022-11-10T08:22:26.681Z,13.36
2022-11-10T08:23:47.306Z,13.71
2022-11-10T08:25:08.150Z,13.69
2022-11-10T08:26:28.626Z,13.75
2022-11-10T08:27:49.436Z,13.61
2022-11-10T08:29:10.525Z,13.92
2022-11-10T08:30:32.852Z,14.41
2022-11-10T08:31:53.581Z,14.44
2022-11-10T08:33:16.449Z,14.09
2022-11-10T08:34:37.252Z,13.81
2022-11-10T08:36:01.148Z,14.24
2022-11-10T08:37:21.640Z,14.63
2022-11-10T08:38:42.620Z,14.10
2022-11-10T08:40:04.382Z,13.74
2022-11-10T08:41:25.134Z,14.04
2022-11-10T08:42:47.215Z,14.34
2022-11-10T08:44:10.818Z,14.41
2022-11-10T08:45:31.888Z,14.55
2022-11-10T08:46:52.479Z,14.31
2022-11-10T08:48:15.747Z,14.17
2022-11-10T08:49:36.655Z,14.45
2022-11-10T08:51:00.025Z,13.75
2022-11-10T08:52:20.736Z,14.33
2022-11-10T08:53:41.680Z,14.15
2022-11-10T08:55:02.556Z,13.74
2022-11-10T08:56:22.978Z,13.46
2022-11-10T08:57:43.690Z,13.32
2022-11-10T08:59:04.544Z,13.75
2022-11-10T09:00:25.286Z,13.61
2022-11-10T09:01:45.958Z,13.59
2022-11-10T09:03:19.215Z,13.89
2022-11-10T09:04:40.110Z,14.02
2022-11-10T09:06:01.800Z,14.22
2022-11-10T09:07:22.339Z,14.02
2022-11-10T09:08:42.857Z,14.31
2022-11-10T09:10:08.115Z,14.37
2022-11-10T09:11:30.373Z,14.71
2022-11-10T09:12:51.245Z,14.71
2022-11-10T09:14:12.160Z,14.39
2022-11-10T09:15:34.544Z,14.46
2022-11-10T09:16:55.099Z,14.23
2022-11-10T09:18:17.145Z,14.79
2022-11-10T09:19:37.806Z,14.89
2022-11-10T09:20:58.497Z,14.68
2022-11-10T09:22:19.085Z,14.22
2022-11-10T09:23:39.974Z,14.38
2022-11-10T09:25:00.670Z,14.63
2022-11-10T09:26:21.160Z,14.75
2022-11-10T09:27:42.145Z,14.82
2022-11-10T09:29:03.080Z,14.91
2022-11-10T09:30:25.200Z,14.95
2022-11-10T09:31:46.296Z,15.43
2022-11-10T09:33:07.165Z,15.30
2022-11-10T09:34:27.982Z,14.98
2022-11-10T09:35:48.949Z,15.11
2022-11-10T09:37:10.253Z,14.84
2022-11-10T09:38:31.249Z,14.96
2022-11-10T09:39:51.779Z,15.29
2022-11-10T09:41:14.989Z,14.55
2022-11-10T09:42:41.317Z,14.73
2022-11-10T09:44:16.850Z,15.42
2022-11-10T09:45:42.573Z,15.55
2022-11-10T09:47:18.933Z,15.42
2022-11-10T09:48:51.289Z,15.73
2022-11-10T09:50:29.633Z,15.40
2022-11-10T09:51:53.747Z,15.24
2022-11-10T09:53:39.277Z,15.60
2022-11-10T09:55:25.425Z,15.33
2022-11-10T09:56:46.611Z,15.35
2022-11-10T09:58:11.585Z,15.17
2022-11-10T09:59:34.133Z,15.27
2022-11-10T10:01:15.173Z,15.18
2022-11-10T10:02:39.936Z,15.34
2022-11-10T10:04:20.469Z,15.58
2022-11-10T10:05:53.376Z,14.81
2022-11-10T10:07:20.489Z,14.49
2022-11-10T10:09:08.332Z,14.18
2022-11-10T10:10:51.825Z,14.45
2022-11-10T10:13:00.945Z,15.14
2022-11-10T10:14:46.367Z,15.47
2022-11-10T10:16:25.697Z,15.35
2022-11-10T10:18:07.834Z,15.53
2022-11-10T10:20:03.673Z,15.83
2022-11-10T10:21:45.325Z,15.75
2022-11-10T10:24:02.067Z,15.91
2022-11-10T10:25:20.658Z,15.18
2022-11-10T10:26:52.799Z,15.54
2022-11-10T10:28:26.184Z,15.38
2022-11-10T10:29:49.217Z,15.28
2022-11-10T10:31:27.042Z,15.86
2022-11-10T10:32:47.688Z,16.12
2022-11-10T10:34:23.348Z,16.02
2022-11-10T10:35:46.636Z,15.99
2022-11-10T10:37:24.054Z,16.26
2022-11-10T10:38:49.193Z,15.31
2022-11-10T10:40:19.529Z,15.81
2022-11-10T10:41:42.227Z,16.18
2022-11-10T10:43:04.221Z,16.06
2022-11-10T10:44:25.208Z,15.76
2022-11-10T10:46:04.569Z,15.70
2022-11-10T10:47:36.784Z,15.95
2022-11-10T10:49:27.962Z,15.90
2022-11-10T10:50:50.474Z,16.04
2022-11-10T10:52:17.658Z,15.98
2022-11-10T10:53:48.405Z,15.84
2022-11-10T10:55:12.312Z,16.06
2022-11-10T10:56:33.606Z,16.18
2022-11-10T10:58:22.255Z,16.25
2022-11-10T10:59:43.151Z,16.13
2022-11-10T11:01:16.015Z,15.92
2022-11-10T11:02:40.156Z,15.62
2022-11-10T11:04:05.334Z,15.38
2022-11-10T11:05:26.084Z,15.41
2022-11-10T11:07:05.356Z,14.92
2022-11-10T11:08:26.930Z,15.15
2022-11-10T11:09:48.007Z,15.53
2022-11-10T11:11:11.214Z,15.75
2022-11-10T11:12:32.843Z,16.03
2022-11-10T11:13:53.805Z,16.05
2022-11-10T11:15:21.630Z,15.98
2022-11-10T11:16:47.748Z,16.03
2022-11-10T11:18:15.778Z,16.06
2022-11-10T11:19:37.979Z,16.05
2022-11-10T11:21:23.355Z,16.13
2022-11-10T11:22:55.463Z,16.09
2022-11-10T11:24:25.066Z,15.35
2022-11-10T11:25:48.718Z,15.48
2022-11-10T11:27:30.874Z,15.32
2022-11-10T11:29:26.551Z,15.39
2022-11-10T11:31:02.974Z,15.60
2022-11-10T11:32:29.349Z,15.64
2022-11-10T11:34:17.337Z,15.30
2022-11-10T11:35:47.485Z,15.34
2022-11-10T11:37:28.605Z,15.35
2022-11-10T11:39:03.541Z,15.45
2022-11-10T11:40:44.925Z,14.87
2022-11-10T11:42:37.140Z,15.25
2022-11-10T11:44:18.446Z,15.36
2022-11-10T11:46:06.599Z,15.40
2022-11-10T11:47:45.842Z,15.49
2022-11-10T11:49:38.115Z,15.26
2022-11-10T11:51:07.817Z,15.45
2022-11-10T11:52:45.518Z,15.43
2022-11-10T11:54:32.800Z,15.22
2022-11-10T11:56:06.180Z,14.70
2022-11-10T11:57:59.821Z,14.84
2022-11-10T11:59:37.277Z,15.17
2022-11-10T12:01:04.533Z,14.84
2022-11-10T12:03:10.907Z,14.91
2022-11-10T12:05:08.484Z,14.71
2022-11-10T12:06:52.241Z,14.69
2022-11-10T12:08:40.140Z,14.54
2022-11-10T12:10:17.931Z,14.51
2022-11-10T12:12:17.150Z,14.91
2022-11-10T12:13:55.948Z,15.12
2022-11-10T12:15:48.945Z,15.05
2022-11-10T12:17:24.325Z,15.23
2022-11-10T12:18:55.470Z,15.26
2022-11-10T12:20:37.490Z,15.37
2022-11-10T12:22:18.393Z,15.51
2022-11-10T12:23:51.399Z,15.10
2022-11-10T12:25:30.949Z,14.99
2022-11-10T12:27:04.322Z,15.08
2022-11-10T12:28:37.814Z,14.99
2022-11-10T12:30:06.057Z,15.34
2022-11-10T12:31:30.244Z,15.43
2022-11-10T12:32:59.024Z,15.33
2022-11-10T12:34:43.806Z,15.09
2022-11-10T12:36:11.531Z,14.93
2022-11-10T12:37:35.649Z,14.94
2022-11-10T12:39:33.702Z,15.11
2022-11-10T12:41:04.638Z,15.22
2022-11-10T12:42:29.029Z,15.13
2022-11-10T12:44:04.968Z,15.32
2022-11-10T12:45:37.638Z,15.27
2022-11-10T12:47:02.936Z,15.24
2022-11-10T12:48:24.979Z,15.37
2022-11-10T12:50:09.909Z,15.13
2022-11-10T12:51:46.747Z,15.18
2022-11-10T12:53:14.927Z,15.17
2022-11-10T12:54:36.347Z,14.79
2022-11-10T12:56:06.284Z,15.04
2022-11-10T12:57:29.142Z,14.85
2022-11-10T12:59:18.529Z,15.06
2022-11-10T13:01:01.301Z,15.08
2022-11-10T13:02:33.774Z,15.11
2022-11-10T13:04:00.135Z,15.28
2022-11-10T13:05:26.604Z,15.33
2022-11-10T13:06:52.846Z,15.25
2022-11-10T13:08:21.114Z,15.36
2022-11-10T13:09:44.074Z,15.28
2022-11-10T13:11:23.101Z,15.34
2022-11-10T13:13:04.972Z,15.42
2022-11-10T13:14:29.485Z,15.36
2022-11-10T13:15:57.896Z,15.46
2022-11-10T13:17:27.338Z,15.43
2022-11-10T13:18:52.696Z,15.46
2022-11-10T13:20:41.335Z,15.34
2022-11-10T13:22:02.108Z,15.21
2022-11-10T13:23:37.653Z,15.04
2022-11-10T13:25:35.569Z,15.15
2022-11-10T13:27:13.474Z,14.98
2022-11-10T13:28:46.333Z,15.04
2022-11-10T13:30:09.155Z,15.16
2022-11-10T13:31:31.037Z,14.92
2022-11-10T13:32:51.917Z,14.86
2022-11-10T13:34:36.930Z,14.75
2022-11-10T13:35:58.245Z,14.87
2022-11-10T13:37:33.852Z,15.13
2022-11-10T13:38:55.710Z,15.15
2022-11-10T13:40:25.107Z,15.30
2022-11-10T13:41:49.643Z,15.16
2022-11-10T13:43:23.966Z,15.30
2022-11-10T13:44:48.260Z,15.29
2022-11-10T13:46:09.193Z,15.29
2022-11-10T13:47:57.687Z,15.29
2022-11-10T13:49:24.767Z,15.42
2022-11-10T13:51:15.832Z,15.42
2022-11-10T13:52:39.314Z,15.36
2022-11-10T13:54:12.870Z,15.35
2022-11-10T13:55:52.927Z,15.21
2022-11-10T13:57:35.847Z,15.41
2022-11-10T13:58:57.951Z,15.38
2022-11-10T14:00:18.807Z,15.24
2022-11-10T14:01:39.576Z,15.23
2022-11-10T14:03:02.202Z,15.26
2022-11-10T14:04:40.241Z,15.23
2022-11-10T14:06:05.938Z,15.18
2022-11-10T14:07:35.318Z,15.27
2022-11-10T14:09:25.760Z,15.27
2022-11-10T14:11:19.403Z,15.32
2022-11-10T14:12:44.366Z,15.16
2022-11-10T14:14:16.702Z,15.06
2022-11-10T14:15:44.124Z,15.11
2022-11-10T14:17:14.458Z,15.03
2022-11-10T14:18:50.573Z,14.95
2022-11-10T14:20:40.987Z,14.90
2022-11-10T14:22:14.898Z,14.90
2022-11-10T14:23:50.468Z,14.93
2022-11-10T14:25:26.515Z,14.72
2022-11-10T14:26:57.222Z,14.77
2022-11-10T14:28:27.782Z,14.63
2022-11-10T14:29:48.687Z,14.74
2022-11-10T14:31:19.206Z,14.75
2022-11-10T14:32:40.341Z,14.63
2022-11-10T14:34:01.077Z,14.65
2022-11-10T14:35:24.586Z,14.52
2022-11-10T14:36:59.555Z,14.58
2022-11-10T14:38:23.428Z,14.62
2022-11-10T14:39:45.047Z,14.64
2022-11-10T14:41:06.886Z,14.69
2022-11-10T14:42:32.904Z,14.71
2022-11-10T14:44:11.130Z,14.68
2022-11-10T14:45:31.851Z,14.45
2022-11-10T14:46:53.032Z,14.46
2022-11-10T14:48:19.289Z,14.26
2022-11-10T14:49:40.314Z,14.28
2022-11-10T14:51:18.911Z,14.17
2022-11-10T14:52:41.528Z,14.13
2022-11-10T14:54:02.936Z,14.14
2022-11-10T14:55:29.177Z,14.28
2022-11-10T14:56:50.319Z,14.25
2022-11-10T14:58:26.181Z,14.18
2022-11-10T14:59:47.551Z,14.15
2022-11-10T15:01:33.812Z,14.12
2022-11-10T15:02:57.726Z,14.02
2022-11-10T15:04:19.231Z,13.98
2022-11-10T15:05:40.071Z,13.99
2022-11-10T15:07:01.170Z,13.94
2022-11-10T15:08:22.189Z,13.96
2022-11-10T15:10:06.043Z,13.93
2022-11-10T15:11:54.232Z,13.90
2022-11-10T15:13:14.656Z,13.85
2022-11-10T15:14:36.374Z,13.78
2022-11-10T15:16:21.918Z,13.74
2022-11-10T15:17:50.660Z,13.74
2022-11-10T15:19:32.326Z,13.63
2022-11-10T15:21:04.455Z,13.55
2022-11-10T15:22:33.992Z,13.58
2022-11-10T15:23:59.962Z,13.51
2022-11-10T15:25:26.080Z,13.51
2022-11-10T15:26:46.779Z,13.48
2022-11-10T15:28:21.377Z,13.36
2022-11-10T15:29:42.156Z,13.32
2022-11-10T15:31:09.607Z,13.25
2022-11-10T15:32:34.890Z,13.23
2022-11-10T15:34:01.378Z,13.17
2022-11-10T15:35:22.131Z,13.14
2022-11-10T15:36:43.258Z,13.05
2022-11-10T15:38:07.066Z,13.02
2022-11-10T15:39:28.628Z,12.97
2022-11-10T15:40:51.010Z,12.90
2022-11-10T15:42:18.727Z,12.85
2022-11-10T15:43:39.856Z,12.77
2022-11-10T15:45:01.069Z,12.67
2022-11-10T15:46:25.579Z,12.62
2022-11-10T15:47:47.336Z,12.66
2022-11-10T15:49:13.475Z,12.60
2022-11-10T15:50:34.533Z,12.58
2022-11-10T15:52:02.432Z,12.50
2022-11-10T15:53:30.487Z,12.48
2022-11-10T15:54:51.574Z,12.48
2022-11-10T15:56:14.906Z,12.38
2022-11-10T15:57:35.761Z,12.39
2022-11-10T15:59:02.075Z,12.16
2022-11-10T16:00:24.027Z,11.74
2022-11-10T16:01:45.083Z,11.72
2022-11-10T16:03:10.492Z,11.77
2022-11-10T16:04:31.266Z,11.70
2022-11-10T16:05:53.607Z,11.71
2022-11-10T16:07:14.973Z,11.68
2022-11-10T16:08:36.237Z,11.64
2022-11-10T16:09:57.267Z,11.53
2022-11-10T16:11:20.544Z,11.38
2022-11-10T16:12:41.631Z,11.22
2022-11-10T16:14:03.746Z,11.15
2022-11-10T16:15:24.683Z,11.14
2022-11-10T16:16:45.421Z,11.10
2022-11-10T16:18:21.084Z,11.12
2022-11-10T16:19:42.190Z,11.06
2022-11-10T16:21:03.049Z,11.08
2022-11-10T16:22:23.655Z,11.03
2022-11-10T16:23:44.294Z,11.00
2022-11-10T16:25:05.463Z,10.97
2022-11-10T16:26:26.652Z,10.93
2022-11-10T16:27:48.328Z,10.84
2022-11-10T16:29:19.737Z,10.78
2022-11-10T16:30:42.400Z,10.54
2022-11-10T16:32:03.858Z,10.52
2022-11-10T16:33:25.014Z,10.50
2022-11-10T16:34:45.753Z,10.56
2022-11-10T16:36:18.943Z,10.56
2022-11-10T16:37:43.285Z,10.51
2022-11-10T16:39:11.619Z,10.46
2022-11-10T16:40:32.665Z,10.44
2022-11-10T16:41:53.758Z,10.38
2022-11-10T16:43:18.597Z,10.15
2022-11-10T16:44:42.510Z,10.12
2022-11-10T16:46:06.511Z,10.06
2022-11-10T16:47:27.670Z,10.00
2022-11-10T16:48:50.229Z,9.86
2022-11-10T16:50:23.174Z,9.91
2022-11-10T16:51:48.783Z,9.95
2022-11-10T16:53:17.700Z,9.99
2022-11-10T16:54:39.203Z,9.96
2022-11-10T16:55:59.898Z,9.95
2022-11-10T16:57:20.896Z,9.76
2022-11-10T16:58:41.741Z,9.72
2022-11-10T17:00:06.331Z,9.65
2022-11-10T17:01:29.293Z,9.72
2022-11-10T17:03:06.717Z,9.63
2022-11-10T17:04:27.374Z,9.62
2022-11-10T17:05:48.549Z,9.53
2022-11-10T17:07:14.630Z,9.54
2022-11-10T17:08:35.833Z,9.55
2022-11-10T17:09:58.759Z,9.55
2022-11-10T17:11:20.290Z,9.55
2022-11-10T17:12:41.140Z,9.56
2022-11-10T17:14:01.683Z,9.52
2022-11-10T17:15:22.621Z,9.53
2022-11-10T17:16:45.608Z,9.54
2022-11-10T17:18:07.483Z,9.49
2022-11-10T17:19:31.454Z,9.45
2022-11-10T17:20:53.883Z,9.47
2022-11-10T17:22:19.253Z,9.46
2022-11-10T17:23:40.368Z,9.41
2022-11-10T17:25:01.319Z,9.36
2022-11-10T17:26:22.389Z,9.36
2022-11-10T17:27:43.886Z,9.34
2022-11-10T17:29:04.897Z,9.29
2022-11-10T17:30:25.490Z,9.19
2022-11-10T17:31:46.728Z,9.13
2022-11-10T17:33:12.383Z,8.99
2022-11-10T17:34:33.052Z,8.84
2022-11-10T17:35:57.448Z,8.93
2022-11-10T17:37:19.028Z,8.90
2022-11-10T17:38:40.673Z,8.91
2022-11-10T17:40:10.600Z,8.90
2022-11-10T17:41:31.602Z,8.73
2022-11-10T17:42:52.639Z,8.76
2022-11-10T17:44:14.821Z,8.77
2022-11-10T17:45:35.377Z,8.85
2022-11-10T17:46:59.098Z,8.79
2022-11-10T17:48:19.837Z,8.77
2022-11-10T17:49:40.598Z,8.50
2022-11-10T17:51:01.586Z,8.39
2022-11-10T17:52:22.344Z,8.34
2022-11-10T17:53:43.104Z,8.37
2022-11-10T17:55:04.113Z,8.41
2022-11-10T17:56:24.725Z,8.48
2022-11-10T17:57:45.616Z,8.43
2022-11-10T17:59:06.481Z,8.32
2022-11-10T18:00:27.082Z,8.25
2022-11-10T18:01:47.971Z,8.21
2022-11-10T18:03:14.610Z,8.27
2022-11-10T18:04:35.187Z,8.34
2022-11-10T18:05:55.789Z,8.37
2022-11-10T18:07:16.618Z,8.43
2022-11-10T18:08:38.419Z,8.42
2022-11-10T18:09:59.396Z,8.43
2022-11-10T18:11:20.109Z,8.45
2022-11-10T18:12:40.944Z,8.44
2022-11-10T18:14:02.480Z,8.43
2022-11-10T18:15:23.249Z,8.37
2022-11-10T18:16:43.806Z,8.18
2022-11-10T18:18:04.701Z,8.14
2022-11-10T18:19:25.393Z,8.15
2022-11-10T18:20:47.171Z,8.18
2022-11-10T18:22:07.836Z,8.27
2022-11-10T18:23:28.518Z,8.25
2022-11-10T18:24:49.498Z,8.23
2022-11-10T18:26:11.743Z,8.13
2022-11-10T18:27:32.505Z,8.04
2022-11-10T18:28:53.281Z,8.03
2022-11-10T18:30:14.723Z,8.07
2022-11-10T18:31:35.612Z,8.18
2022-11-10T18:32:56.187Z,8.18
2022-11-10T18:34:16.624Z,8.20
2022-11-10T18:35:39.129Z,8.23
2022-11-10T18:36:59.813Z,8.28